Time;durP1;ratioP1;P1;durP2;ratioP2;P2;SDS_P1;SDS_P2;PMS_P1;PMS_P2;Temp;Humidity;BMP_temperature;BMP_pressure;BME280_temperature;BME280_humidity;BME280_pressure;Samples;Min_cycle;Max_cycle;Signal;HPM_P1;HPM_P2
2021/12/01 00:55:10;;;;;;;1.67;1.30;;;3.30;99.90;;;;;;2977401;23;20297;-91
2021/12/01 00:57:37;;;;;;;1.10;1.00;;;3.30;99.90;;;;;;4990539;28;20195;-91
2021/12/01 01:00:06;;;;;;;1.77;1.23;;;3.30;99.90;;;;;;4998909;28;20211;-92
2021/12/01 01:02:33;;;;;;;1.20;1.00;;;3.40;99.90;;;;;;5006150;28;20211;-92
2021/12/01 01:05:00;;;;;;;1.10;1.00;;;3.30;99.90;;;;;;5012911;28;20229;-91
2021/12/01 01:07:27;;;;;;;1.42;1.30;;;3.30;99.90;;;;;;5014324;28;20234;-92
2021/12/01 01:09:54;;;;;;;1.10;0.98;;;3.30;99.90;;;;;;4998374;28;20219;-92
2021/12/01 01:18:02;;;;;;;1.67;1.58;;;3.50;99.90;;;;;;4998703;28;20195;-92
2021/12/01 01:20:29;;;;;;;1.27;1.17;;;3.50;99.90;;;;;;4998550;28;20257;-92
2021/12/01 01:22:56;;;;;;;1.50;1.20;;;3.50;99.90;;;;;;4999042;28;20207;-92
2021/12/01 01:25:23;;;;;;;1.42;1.17;;;3.50;99.90;;;;;;5001497;28;20235;-93
2021/12/01 01:27:51;;;;;;;1.35;1.17;;;3.50;99.90;;;;;;4999478;28;20652;-92
2021/12/01 01:30:18;;;;;;;1.75;1.60;;;3.50;99.90;;;;;;4997773;28;20210;-92
2021/12/01 01:32:45;;;;;;;1.60;1.50;;;3.60;99.90;;;;;;4998660;28;20206;-92
2021/12/01 01:35:13;;;;;;;1.73;1.40;;;3.60;99.90;;;;;;4999008;28;20238;-92
2021/12/01 01:37:40;;;;;;;1.63;1.40;;;3.60;99.90;;;;;;4998795;28;20657;-90
2021/12/01 01:40:09;;;;;;;1.83;1.30;;;3.60;99.90;;;;;;4998174;28;20203;-92
2021/12/01 01:42:36;;;;;;;1.58;1.48;;;3.60;99.90;;;;;;5001223;28;20238;-93
2021/12/01 01:45:06;;;;;;;1.83;1.67;;;3.60;99.90;;;;;;4999917;28;20231;-92
2021/12/01 01:47:33;;;;;;;1.70;1.60;;;3.70;99.90;;;;;;4999719;28;20215;-93
2021/12/01 01:50:03;;;;;;;1.83;1.52;;;3.70;99.90;;;;;;4999484;28;20702;-92
2021/12/01 01:52:30;;;;;;;1.55;1.45;;;3.70;99.90;;;;;;4999019;28;20277;-93
2021/12/01 01:54:57;;;;;;;1.45;1.35;;;3.70;99.90;;;;;;4999570;28;20231;-93
2021/12/01 01:57:24;;;;;;;1.55;1.45;;;3.70;99.90;;;;;;4998381;28;20661;-92
2021/12/01 01:59:51;;;;;;;1.50;1.40;;;3.70;99.90;;;;;;4999476;28;20199;-93
2021/12/01 02:02:19;;;;;;;1.65;1.55;;;3.70;99.90;;;;;;4998917;28;20213;-92
2021/12/01 02:04:46;;;;;;;1.63;1.52;;;3.70;99.90;;;;;;4998209;28;20227;-92
2021/12/01 02:07:13;;;;;;;1.50;1.40;;;3.70;99.90;;;;;;4998617;28;20684;-93
2021/12/01 02:09:40;;;;;;;1.40;1.30;;;3.80;99.90;;;;;;4998516;28;20207;-92
2021/12/01 02:12:08;;;;;;;2.10;1.90;;;3.80;99.90;;;;;;4998797;28;20211;-92
2021/12/01 02:14:35;;;;;;;1.70;1.60;;;3.80;99.90;;;;;;4998408;28;20250;-92
2021/12/01 02:17:02;;;;;;;1.58;1.45;;;3.80;99.90;;;;;;4999140;28;20209;-92
2021/12/01 02:19:31;;;;;;;1.65;1.35;;;3.80;99.90;;;;;;4999630;28;20661;-92
2021/12/01 02:21:59;;;;;;;1.55;1.23;;;3.80;99.90;;;;;;4999651;28;20704;-92
2021/12/01 02:24:26;;;;;;;1.70;1.27;;;3.80;99.90;;;;;;4998949;28;20223;-92
2021/12/01 02:26:53;;;;;;;1.30;1.20;;;3.80;99.90;;;;;;4998639;28;20340;-92
2021/12/01 02:29:24;;;;;;;1.42;1.33;;;3.80;99.90;;;;;;4998229;28;20203;-93
2021/12/01 02:31:52;;;;;;;1.80;1.42;;;3.80;99.90;;;;;;4997855;28;20230;-93
2021/12/01 02:34:21;;;;;;;1.20;1.10;;;3.80;99.90;;;;;;5000013;28;20708;-93
2021/12/01 02:36:50;;;;;;;1.30;1.20;;;3.90;99.90;;;;;;4999098;28;20203;-93
2021/12/01 02:39:19;;;;;;;1.40;1.30;;;3.90;99.90;;;;;;4998998;28;20257;-93
2021/12/01 02:41:51;;;;;;;1.63;1.40;;;3.90;99.90;;;;;;4997175;28;20210;-93
2021/12/01 02:44:20;;;;;;;2.15;1.33;;;3.90;99.90;;;;;;4998011;28;20222;-92
2021/12/01 02:46:47;;;;;;;2.00;1.40;;;3.90;99.90;;;;;;4996988;28;20215;-92
2021/12/01 02:49:19;;;;;;;1.30;1.20;;;3.90;99.90;;;;;;4996701;28;20678;-93
2021/12/01 02:51:48;;;;;;;1.20;1.10;;;3.90;99.90;;;;;;4997784;28;20756;-93
2021/12/01 02:54:16;;;;;;;1.58;1.48;;;4.00;99.90;;;;;;4997637;28;20613;-93
2021/12/01 02:56:48;;;;;;;1.30;1.17;;;4.00;99.90;;;;;;4995999;28;20215;-93
2021/12/01 02:59:16;;;;;;;1.42;1.33;;;3.90;99.90;;;;;;4998316;28;20230;-93
2021/12/01 03:01:45;;;;;;;1.25;1.15;;;3.90;99.90;;;;;;4998635;28;20207;-93
2021/12/01 03:04:13;;;;;;;1.52;1.42;;;4.00;99.90;;;;;;4998698;28;20223;-93
2021/12/01 03:06:44;;;;;;;1.30;1.20;;;4.00;99.90;;;;;;4998693;28;20246;-93
2021/12/01 03:09:12;;;;;;;1.73;1.63;;;4.00;99.90;;;;;;4999608;28;20294;-93
2021/12/01 03:11:39;;;;;;;1.55;1.20;;;4.00;99.90;;;;;;4997577;28;20249;-92
2021/12/01 03:14:12;;;;;;;1.70;1.58;;;4.00;99.90;;;;;;4997895;28;20237;-93
2021/12/01 03:16:39;;;;;;;1.30;1.20;;;4.10;99.90;;;;;;4998152;28;20234;-93
2021/12/01 03:19:07;;;;;;;1.60;1.40;;;4.10;99.90;;;;;;4998763;28;20242;-92
2021/12/01 03:21:37;;;;;;;1.10;1.00;;;4.10;99.90;;;;;;4997869;28;20211;-92
2021/12/01 03:24:04;;;;;;;2.95;1.58;;;4.10;99.90;;;;;;4996938;28;20251;-93
2021/12/01 03:26:31;;;;;;;1.83;1.65;;;4.10;99.90;;;;;;4997039;28;20306;-93
2021/12/01 03:28:58;;;;;;;1.50;1.40;;;4.10;99.90;;;;;;4996958;28;20234;-94
2021/12/01 03:31:27;;;;;;;1.35;1.17;;;4.10;99.90;;;;;;4997680;28;20211;-92
2021/12/01 03:33:54;;;;;;;1.73;1.17;;;4.10;99.90;;;;;;4995240;28;20209;-92
2021/12/01 03:36:21;;;;;;;1.30;1.20;;;4.10;99.90;;;;;;4995140;28;20211;-93
2021/12/01 03:38:48;;;;;;;1.55;1.35;;;4.20;99.90;;;;;;4995276;28;20206;-92
2021/12/01 03:41:15;;;;;;;1.80;1.05;;;4.20;99.90;;;;;;4995657;28;20211;-93
2021/12/01 03:43:42;;;;;;;1.60;1.50;;;4.10;99.90;;;;;;4995347;28;20682;-92
2021/12/01 03:46:09;;;;;;;1.02;0.90;;;4.10;99.90;;;;;;4995600;28;20238;-92
2021/12/01 03:48:38;;;;;;;1.48;1.38;;;4.10;99.90;;;;;;4996360;28;20210;-93
2021/12/01 03:51:05;;;;;;;1.40;1.30;;;4.10;99.90;;;;;;4995809;28;20649;-92
2021/12/01 03:53:32;;;;;;;1.20;1.10;;;4.10;99.90;;;;;;4996045;28;20209;-93
2021/12/01 03:56:00;;;;;;;1.60;1.50;;;4.10;99.90;;;;;;4995457;28;20235;-93
2021/12/01 03:58:27;;;;;;;1.33;1.23;;;4.10;99.90;;;;;;4995566;28;20214;-93
2021/12/01 04:00:54;;;;;;;1.40;1.25;;;4.20;99.90;;;;;;4995410;28;20210;-92
2021/12/01 04:03:21;;;;;;;1.85;1.35;;;4.20;99.90;;;;;;4995316;28;20199;-93
2021/12/01 04:05:50;;;;;;;1.98;1.77;;;4.20;99.90;;;;;;4995433;28;20223;-93
2021/12/01 04:08:19;;;;;;;1.10;1.00;;;4.20;99.90;;;;;;4995825;28;20242;-93
2021/12/01 04:10:47;;;;;;;1.40;1.30;;;4.20;99.90;;;;;;4995704;28;20211;-93
2021/12/01 04:13:14;;;;;;;3.72;1.30;;;4.30;99.90;;;;;;4996977;28;20217;-93
2021/12/01 04:15:41;;;;;;;1.60;1.50;;;4.30;99.90;;;;;;4999755;28;20794;-92
2021/12/01 04:18:08;;;;;;;2.20;1.20;;;4.30;99.90;;;;;;4996535;28;20211;-93
2021/12/01 04:20:36;;;;;;;2.10;1.52;;;4.30;99.90;;;;;;4997100;28;20294;-92
2021/12/01 04:23:05;;;;;;;1.33;1.23;;;4.30;99.90;;;;;;4996858;28;20278;-93
2021/12/01 04:25:32;;;;;;;1.25;1.15;;;4.30;99.90;;;;;;4997301;28;20238;-93
2021/12/01 04:27:59;;;;;;;1.73;1.60;;;4.30;99.90;;;;;;4996499;28;20203;-92
2021/12/01 04:30:26;;;;;;;1.42;1.33;;;4.30;99.90;;;;;;5003894;28;20716;-93
2021/12/01 04:32:54;;;;;;;1.80;1.60;;;4.40;99.90;;;;;;5000803;28;20203;-93
2021/12/01 04:35:24;;;;;;;1.35;1.23;;;4.40;99.90;;;;;;5008842;28;20207;-94
2021/12/01 04:37:51;;;;;;;2.42;1.30;;;4.40;99.90;;;;;;5014173;28;20203;-94
2021/12/01 04:40:20;;;;;;;1.50;1.30;;;4.40;99.90;;;;;;5005952;28;20203;-93
2021/12/01 04:42:47;;;;;;;1.45;1.30;;;4.50;99.90;;;;;;5002624;28;20227;-93
2021/12/01 04:45:18;;;;;;;1.73;1.60;;;4.50;99.90;;;;;;5001809;28;20277;-94
2021/12/01 04:47:47;;;;;;;1.27;1.17;;;4.50;99.90;;;;;;5006463;28;20310;-93
2021/12/01 04:50:53;;;;;;;2.42;1.20;;;4.60;99.90;;;;;;5014698;28;20267;-95
2021/12/01 04:53:21;;;;;;;1.10;1.00;;;4.60;99.90;;;;;;5011018;28;20259;-94
2021/12/01 04:55:51;;;;;;;1.25;1.15;;;4.60;99.90;;;;;;5081309;23;20241;-93
2021/12/01 04:58:29;;;;;;;;;;;;;;;;;;;;;
2021/12/01 05:01:03;;;;;;;1.10;1.00;;;4.60;99.90;;;;;;5016561;28;20175;-93
2021/12/01 05:03:35;;;;;;;2.75;1.70;;;4.60;99.90;;;;;;5020384;28;20238;-91
2021/12/01 05:06:05;;;;;;;1.40;1.25;;;4.60;99.90;;;;;;5020619;28;20215;-91
2021/12/01 05:08:32;;;;;;;1.17;1.08;;;4.60;99.90;;;;;;5021357;28;20179;-93
2021/12/01 05:11:03;;;;;;;1.00;0.90;;;4.60;99.90;;;;;;5020929;28;20211;-91
2021/12/01 05:13:33;;;;;;;2.08;0.90;;;4.70;99.90;;;;;;5019244;28;20175;-92
2021/12/01 05:16:12;;;;;;;1.00;0.90;;;4.80;99.90;;;;;;5018895;28;20198;-91
2021/12/01 05:18:40;;;;;;;2.22;1.40;;;4.80;99.90;;;;;;5014127;28;20448;-89
2021/12/01 05:21:07;;;;;;;1.00;0.90;;;4.80;99.90;;;;;;5018647;28;20402;-90
2021/12/01 05:23:34;;;;;;;1.20;1.08;;;4.90;99.90;;;;;;5018662;28;20187;-90
2021/12/01 05:26:03;;;;;;;2.63;1.20;;;4.90;99.90;;;;;;5018769;28;20227;-91
2021/12/01 05:28:37;;;;;;;1.55;1.20;;;4.90;99.90;;;;;;5018274;28;20286;-91
2021/12/01 05:31:04;;;;;;;1.45;1.10;;;4.90;99.90;;;;;;5018844;28;20199;-91
2021/12/01 05:33:31;;;;;;;1.13;0.90;;;5.00;99.90;;;;;;5016037;28;20238;-91
2021/12/01 05:35:58;;;;;;;2.20;1.30;;;5.00;99.90;;;;;;5014025;28;20261;-92
2021/12/01 05:38:26;;;;;;;1.42;1.08;;;5.10;99.90;;;;;;5013826;28;20215;-91
2021/12/01 05:40:53;;;;;;;1.33;1.23;;;5.00;99.90;;;;;;5011902;28;20279;-89
2021/12/01 05:43:21;;;;;;;2.60;1.17;;;5.10;99.90;;;;;;5015332;28;20229;-93
2021/12/01 05:45:49;;;;;;;3.15;1.30;;;5.10;99.90;;;;;;5012549;28;20227;-92
2021/12/01 05:48:17;;;;;;;1.42;1.23;;;5.10;99.90;;;;;;5012066;28;20282;-92
2021/12/01 05:50:44;;;;;;;0.90;0.80;;;5.10;99.90;;;;;;5015796;28;20218;-92
2021/12/01 05:53:11;;;;;;;1.35;1.08;;;5.20;99.90;;;;;;5011625;28;20207;-93
2021/12/01 07:59:35;;;;;;;0.90;0.80;;;6.00;99.90;;;;;;4969029;28;20277;-93
2021/12/01 08:22:54;;;;;;;1.02;0.85;;;8.80;99.90;;;;;;5434082;23;20273;-91
2021/12/01 08:25:30;;;;;;;1.20;0.90;;;9.50;99.90;;;;;;5012433;28;20249;-91
2021/12/01 08:39:01;;;;;;;1.48;0.75;;;8.30;99.90;;;;;;4791750;30;20279;-91
2021/12/01 08:48:21;;;;;;;0.80;0.80;;;7.70;99.90;;;;;;4606083;30;20275;-88
2021/12/01 08:50:48;;;;;;;1.10;0.90;;;7.60;99.90;;;;;;4670024;30;20288;-91
2021/12/01 08:54:13;;;;;;;0.80;0.70;;;7.60;99.90;;;;;;4886477;28;20206;-91
2021/12/01 09:03:24;;;;;;;0.80;0.73;;;7.40;99.90;;;;;;4932614;28;20586;-91
2021/12/01 09:05:53;;;;;;;1.55;0.90;;;7.40;99.90;;;;;;4976308;28;20258;-92
2021/12/01 09:08:25;;;;;;;0.98;0.80;;;7.40;99.90;;;;;;4977897;28;20200;-92
2021/12/01 09:11:09;;;;;;;0.80;0.70;;;7.50;99.90;;;;;;4979116;28;20371;-93
2021/12/01 09:17:33;;;;;;;0.80;0.80;;;7.80;99.90;;;;;;4981830;28;20203;-92
2021/12/01 09:23:13;;;;;;;1.10;1.00;;;8.50;99.90;;;;;;4988000;28;20206;-91
2021/12/01 09:25:40;;;;;;;1.20;0.90;;;8.60;99.90;;;;;;4984283;28;20203;-91
2021/12/01 09:28:15;;;;;;;1.02;0.90;;;8.60;99.90;;;;;;4984145;28;20231;-91
2021/12/01 09:30:46;;;;;;;1.23;0.90;;;8.40;99.90;;;;;;4986581;28;20237;-90
2021/12/01 09:33:13;;;;;;;4.03;1.10;;;8.40;99.90;;;;;;4991634;28;20223;-92
2021/12/01 09:35:41;;;;;;;2.05;0.80;;;8.30;99.90;;;;;;4996143;28;20215;-92
2021/12/01 09:38:50;;;;;;;0.82;0.75;;;8.20;99.90;;;;;;4998717;28;20216;-93
2021/12/01 09:41:23;;;;;;;0.95;0.70;;;8.20;99.90;;;;;;4990254;28;20588;-90
2021/12/01 09:43:57;;;;;;;0.80;0.70;;;8.10;99.90;;;;;;4992233;28;20204;-92
2021/12/01 09:49:09;;;;;;;0.80;0.75;;;8.00;99.90;;;;;;4986571;28;20235;-89
2021/12/01 10:36:31;;;;;;;0.90;0.80;;;8.40;99.90;;;;;;5521402;23;20734;-91
2021/12/01 10:39:06;;;;;;;0.90;0.70;;;8.50;99.90;;;;;;5007742;28;20205;-92
2021/12/01 10:41:36;;;;;;;0.80;0.70;;;8.50;99.90;;;;;;4988209;28;20718;-89
2021/12/01 10:44:09;;;;;;;1.00;0.90;;;8.60;99.90;;;;;;4979327;28;20216;-90
2021/12/01 10:46:45;;;;;;;1.17;0.70;;;8.70;99.90;;;;;;4979521;28;20199;-89
2021/12/01 10:49:12;;;;;;;0.90;0.80;;;8.90;99.90;;;;;;4987578;28;20202;-93
2021/12/01 10:51:43;;;;;;;0.93;0.70;;;9.00;99.90;;;;;;4996600;28;20212;-90
2021/12/01 10:54:19;;;;;;;0.90;0.70;;;9.10;99.90;;;;;;4993925;28;20231;-94
2021/12/01 10:56:46;;;;;;;0.80;0.70;;;9.20;99.90;;;;;;4989003;28;20309;-92
2021/12/01 11:04:45;;;;;;;1.00;0.80;;;9.20;99.90;;;;;;5691882;23;20239;-91
2021/12/01 11:07:29;;;;;;;0.77;0.70;;;9.20;99.90;;;;;;5002963;28;20242;-91
2021/12/01 11:10:24;;;;;;;0.90;0.80;;;9.20;99.90;;;;;;5010065;28;20250;-91
2021/12/01 11:12:59;;;;;;;1.40;1.30;;;9.20;99.90;;;;;;4995456;28;20211;-90
2021/12/01 11:15:36;;;;;;;1.20;0.90;;;9.30;99.90;;;;;;4995908;28;20199;-91
2021/12/01 11:18:09;;;;;;;1.00;0.80;;;9.40;99.90;;;;;;4994713;28;20230;-93
2021/12/01 11:21:00;;;;;;;3.72;1.00;;;9.60;99.90;;;;;;4995631;28;20238;-91
2021/12/01 11:23:44;;;;;;;0.90;0.70;;;9.70;99.90;;;;;;4990366;28;20270;-90
2021/12/01 11:26:19;;;;;;;0.95;0.70;;;9.70;99.90;;;;;;4994084;28;20749;-91
2021/12/01 11:28:52;;;;;;;1.20;0.90;;;9.70;99.90;;;;;;4994155;28;20631;-90
2021/12/01 11:31:58;;;;;;;0.90;0.70;;;9.70;99.90;;;;;;4994748;28;20227;-91
2021/12/01 11:35:02;;;;;;;1.27;1.15;;;9.70;99.90;;;;;;4994740;28;20615;-91
2021/12/01 11:37:33;;;;;;;0.85;0.70;;;9.70;99.90;;;;;;4992218;28;20226;-91
2021/12/01 11:40:04;;;;;;;0.80;0.70;;;9.60;99.90;;;;;;4994230;28;20277;-90
2021/12/01 11:42:37;;;;;;;1.00;0.80;;;9.60;99.90;;;;;;4995257;28;20306;-92
2021/12/01 11:45:13;;;;;;;1.58;1.00;;;9.70;99.90;;;;;;4995007;28;20203;-91
2021/12/01 11:48:17;;;;;;;0.90;0.80;;;9.90;99.90;;;;;;4993958;28;20281;-90
2021/12/01 11:54:31;;;;;;;1.63;0.90;;;10.00;99.90;;;;;;5009965;28;20265;-91
2021/12/01 12:03:44;;;;;;;1.10;1.00;;;9.60;99.90;;;;;;4979292;28;20258;-92
2021/12/01 12:12:43;;;;;;;1.02;0.93;;;9.30;99.90;;;;;;4985995;28;20211;-91
2021/12/01 12:15:10;;;;;;;1.20;0.85;;;9.40;99.90;;;;;;4977285;28;20206;-91
2021/12/01 12:17:38;;;;;;;1.58;1.15;;;9.40;99.90;;;;;;4987008;28;20226;-91
2021/12/01 12:20:17;;;;;;;1.30;1.20;;;9.30;99.90;;;;;;4992368;28;20250;-91
2021/12/01 12:25:56;;;;;;;1.95;1.10;;;9.00;99.90;;;;;;4978886;28;20317;-91
2021/12/01 12:41:55;;;;;;;2.33;1.35;;;8.70;99.90;;;;;;4979834;28;20226;-94
2021/12/01 12:44:35;;;;;;;5.03;1.35;;;8.50;99.90;;;;;;4976305;28;20208;-91
2021/12/01 12:47:03;;;;;;;1.88;1.13;;;8.50;99.90;;;;;;4975273;28;20204;-91
2021/12/01 12:49:44;;;;;;;1.30;1.10;;;8.40;99.90;;;;;;4978258;28;20280;-90
2021/12/01 12:52:35;;;;;;;3.90;1.30;;;8.30;99.90;;;;;;4981228;28;20568;-90
2021/12/01 12:55:08;;;;;;;2.80;1.20;;;8.30;99.90;;;;;;4998263;28;20220;-92
2021/12/01 12:57:58;;;;;;;1.48;1.10;;;8.20;99.90;;;;;;4989160;28;20208;-90
2021/12/01 13:00:30;;;;;;;2.03;1.00;;;8.10;99.90;;;;;;4982019;28;20600;-91
2021/12/01 13:03:05;;;;;;;3.85;1.20;;;8.10;99.90;;;;;;4980370;28;20286;-90
2021/12/01 13:05:37;;;;;;;1.30;1.13;;;8.00;99.90;;;;;;4979093;28;20203;-90
2021/12/01 13:08:33;;;;;;;1.70;1.40;;;8.00;99.90;;;;;;4979877;28;20200;-90
2021/12/01 13:11:05;;;;;;;1.85;1.45;;;8.00;99.90;;;;;;4980299;28;20322;-92
2021/12/01 13:13:41;;;;;;;1.50;1.15;;;8.00;99.90;;;;;;4981012;28;20200;-93
2021/12/01 13:16:11;;;;;;;2.05;1.50;;;8.00;99.90;;;;;;4981373;28;20224;-91
2021/12/01 13:18:44;;;;;;;1.20;1.05;;;8.10;99.90;;;;;;4981365;28;20310;-91
2021/12/01 13:35:24;;;;;;;1.40;1.20;;;7.90;99.90;;;;;;5154812;27;20204;-92
2021/12/01 13:38:44;;;;;;;2.00;1.45;;;7.90;99.90;;;;;;5156124;27;20625;-92
2021/12/01 13:44:43;;;;;;;1.77;1.45;;;7.90;99.90;;;;;;5161115;27;20165;-92
2021/12/01 13:47:12;;;;;;;1.92;1.20;;;7.90;99.90;;;;;;5159509;27;20229;-92
2021/12/01 13:49:40;;;;;;;2.58;1.70;;;7.80;99.90;;;;;;5154059;27;20213;-91
2021/12/01 13:52:33;;;;;;;1.67;1.27;;;7.80;99.90;;;;;;5155176;27;20204;-90
2021/12/01 13:55:22;;;;;;;1.52;1.30;;;7.80;99.90;;;;;;5152068;27;20201;-91
2021/12/01 13:58:20;;;;;;;2.38;1.17;;;7.80;99.90;;;;;;5159968;27;20209;-92
2021/12/01 14:00:52;;;;;;;5.13;1.95;;;7.70;99.90;;;;;;5161394;27;20268;-91
2021/12/01 14:03:38;;;;;;;1.20;1.05;;;7.80;99.90;;;;;;5154545;27;20253;-93
2021/12/01 14:07:07;;;;;;;1.88;1.05;;;7.70;99.90;;;;;;5123692;27;20198;-93
2021/12/01 14:10:01;;;;;;;1.33;1.08;;;7.70;99.90;;;;;;5157992;27;20609;-92
2021/12/01 14:12:47;;;;;;;1.00;0.90;;;7.80;99.90;;;;;;5158726;27;20246;-93
2021/12/01 14:15:27;;;;;;;1.52;1.00;;;7.80;99.90;;;;;;5161386;27;20205;-94
2021/12/01 14:17:56;;;;;;;1.23;1.00;;;7.80;99.90;;;;;;5161625;27;20205;-93
2021/12/01 14:20:30;;;;;;;1.10;0.90;;;7.80;99.90;;;;;;5168515;27;20217;-94
2021/12/01 14:22:59;;;;;;;1.10;0.90;;;7.80;99.90;;;;;;5157474;27;20201;-94
2021/12/01 14:25:27;;;;;;;1.00;0.90;;;7.80;99.90;;;;;;5162371;27;20571;-93
2021/12/01 14:28:11;;;;;;;1.10;0.90;;;7.80;99.90;;;;;;5164821;27;20273;-92
2021/12/01 14:30:40;;;;;;;1.10;0.85;;;7.80;99.90;;;;;;5161352;27;20683;-93
2021/12/01 14:33:24;;;;;;;0.90;0.80;;;7.80;99.90;;;;;;5161726;27;20266;-91
2021/12/01 14:36:01;;;;;;;1.27;0.80;;;7.80;99.90;;;;;;5156472;27;20194;-92
2021/12/01 14:38:31;;;;;;;0.90;0.73;;;7.90;99.90;;;;;;5155093;27;20197;-92
2021/12/01 14:40:58;;;;;;;1.20;0.80;;;7.80;99.90;;;;;;5152653;27;20225;-92
2021/12/01 14:43:28;;;;;;;0.90;0.73;;;7.80;99.90;;;;;;5147672;27;20210;-92
2021/12/01 14:45:55;;;;;;;4.10;0.82;;;7.80;99.90;;;;;;5142148;27;20217;-92
2021/12/01 14:48:24;;;;;;;0.90;0.80;;;7.80;99.90;;;;;;5140642;27;20202;-91
2021/12/01 14:50:54;;;;;;;1.40;1.10;;;7.70;99.90;;;;;;5133928;27;20245;-92
2021/12/01 14:53:23;;;;;;;0.80;0.80;;;7.60;99.90;;;;;;5132429;27;20281;-94
2021/12/01 14:55:58;;;;;;;1.10;1.00;;;7.60;99.90;;;;;;5130181;27;20207;-93
2021/12/01 14:58:27;;;;;;;1.25;0.90;;;7.60;99.90;;;;;;5120995;27;20194;-92
2021/12/01 15:00:59;;;;;;;1.08;0.80;;;7.50;99.90;;;;;;5131895;27;20683;-92
2021/12/01 15:03:35;;;;;;;0.90;0.80;;;7.50;99.90;;;;;;5141293;27;20306;-90
2021/12/01 15:06:02;;;;;;;1.10;1.00;;;7.50;99.90;;;;;;5122693;27;20198;-91
2021/12/01 15:08:31;;;;;;;1.23;1.02;;;7.50;99.90;;;;;;5137845;27;20205;-90
2021/12/01 15:11:24;;;;;;;;;;;;;;;;;;;;;
2021/12/01 15:13:58;;;;;;;1.23;0.80;;;7.50;99.90;;;;;;5139404;27;20248;-92
2021/12/01 15:16:27;;;;;;;1.27;0.98;;;7.60;99.90;;;;;;5138446;27;20194;-91
2021/12/01 15:19:00;;;;;;;1.10;0.90;;;7.50;99.90;;;;;;5141423;27;20736;-91
2021/12/01 15:21:29;;;;;;;1.00;0.90;;;7.60;99.90;;;;;;5145886;27;20232;-91
2021/12/01 15:24:12;;;;;;;1.67;1.10;;;7.60;99.90;;;;;;5141064;27;20281;-91
2021/12/01 15:26:40;;;;;;;1.20;0.90;;;7.50;99.90;;;;;;5138671;27;20206;-89
2021/12/01 15:29:10;;;;;;;1.17;0.85;;;7.50;99.90;;;;;;5138549;27;20239;-89
2021/12/01 15:31:46;;;;;;;1.75;0.90;;;7.50;99.90;;;;;;5138838;27;20307;-89
2021/12/01 15:34:14;;;;;;;1.20;1.10;;;7.50;99.90;;;;;;5138105;27;20217;-88
2021/12/01 15:36:43;;;;;;;1.63;1.20;;;7.50;99.90;;;;;;5138260;27;20198;-89
2021/12/01 15:39:10;;;;;;;0.90;0.80;;;7.50;99.90;;;;;;5136658;27;20720;-91
2021/12/01 15:41:37;;;;;;;1.10;1.00;;;7.60;99.90;;;;;;5140326;27;20230;-89
2021/12/01 15:44:03;;;;;;;1.25;0.82;;;7.60;99.90;;;;;;5138315;27;20206;-90
2021/12/01 15:46:30;;;;;;;1.23;0.90;;;7.60;99.90;;;;;;5138236;27;20213;-92
2021/12/01 15:48:59;;;;;;;3.63;1.05;;;7.60;99.90;;;;;;5141529;27;20851;-88
2021/12/01 15:51:27;;;;;;;1.00;0.90;;;7.60;99.90;;;;;;5139258;27;20309;-91
2021/12/01 15:53:54;;;;;;;1.05;0.80;;;7.50;99.90;;;;;;5138110;27;20202;-91
2021/12/01 15:56:21;;;;;;;0.95;0.80;;;7.50;99.90;;;;;;5137940;27;20302;-92
2021/12/01 15:58:48;;;;;;;1.65;0.90;;;7.50;99.90;;;;;;5136621;27;20561;-91
2021/12/01 16:01:15;;;;;;;1.45;0.98;;;7.50;99.90;;;;;;5135430;27;20234;-91
2021/12/01 16:03:42;;;;;;;3.22;0.90;;;7.50;99.90;;;;;;5137407;27;20202;-90
2021/12/01 16:09:35;;;;;;;1.60;1.10;;;7.50;99.90;;;;;;5141249;27;20243;-93
2021/12/01 16:12:03;;;;;;;0.95;0.80;;;7.40;99.90;;;;;;5139153;27;20202;-92
2021/12/01 16:14:30;;;;;;;1.17;0.90;;;7.30;99.90;;;;;;5140767;27;20549;-92
2021/12/01 16:16:59;;;;;;;1.92;1.25;;;7.30;99.90;;;;;;5153898;27;20202;-91
2021/12/01 16:19:28;;;;;;;1.40;1.13;;;7.30;99.90;;;;;;5169773;27;20197;-92
2021/12/01 16:21:56;;;;;;;1.95;1.13;;;7.20;99.90;;;;;;5155890;27;20490;-91
2021/12/01 16:24:23;;;;;;;0.90;0.80;;;7.20;99.90;;;;;;5138397;27;20206;-91
2021/12/01 16:26:52;;;;;;;1.00;0.80;;;7.10;99.90;;;;;;5139121;27;20222;-90
2021/12/01 16:29:20;;;;;;;0.90;0.73;;;7.10;99.90;;;;;;5139300;27;20210;-92
2021/12/01 16:31:47;;;;;;;1.00;0.90;;;7.00;99.90;;;;;;5140041;27;20229;-91
2021/12/01 16:34:14;;;;;;;0.98;0.88;;;7.00;99.90;;;;;;5144732;27;20205;-91
2021/12/01 16:36:41;;;;;;;1.10;1.00;;;7.00;99.90;;;;;;5163165;27;20208;-92
2021/12/01 16:39:08;;;;;;;1.38;1.17;;;7.00;99.90;;;;;;5161232;27;20269;-92
2021/12/01 16:41:35;;;;;;;1.50;1.40;;;7.00;99.90;;;;;;5162483;27;20217;-92
2021/12/01 16:44:04;;;;;;;2.30;2.10;;;6.90;99.90;;;;;;5158935;27;20194;-91
2021/12/01 16:46:31;;;;;;;1.30;1.20;;;6.90;99.90;;;;;;5142573;27;20807;-92
2021/12/01 16:48:58;;;;;;;1.20;1.00;;;7.00;99.90;;;;;;5142248;27;20209;-91
2021/12/01 16:51:25;;;;;;;1.30;1.20;;;7.00;99.90;;;;;;5143332;27;20229;-92
2021/12/01 16:53:52;;;;;;;1.98;1.52;;;7.10;99.90;;;;;;5143923;27;20206;-93
2021/12/01 16:56:22;;;;;;;1.10;0.90;;;7.00;99.90;;;;;;5142803;27;20548;-93
2021/12/01 16:58:50;;;;;;;1.00;0.90;;;7.10;99.90;;;;;;5141008;27;20199;-93
2021/12/01 17:01:34;;;;;;;2.10;1.45;;;7.10;99.90;;;;;;5141931;27;20261;-94
2021/12/01 17:04:03;;;;;;;1.42;1.10;;;7.10;99.90;;;;;;5159124;27;20197;-92
2021/12/01 17:06:34;;;;;;;1.00;0.90;;;7.20;99.90;;;;;;5145282;27;20246;-92
2021/12/01 17:09:03;;;;;;;1.30;1.08;;;7.30;99.90;;;;;;5149443;27;20208;-93
2021/12/01 17:11:59;;;;;;;;;;;;;;;;;;;;;
2021/12/01 17:14:46;;;;;;;1.00;0.80;;;7.30;99.90;;;;;;5145410;27;20233;-93
2021/12/01 17:17:17;;;;;;;1.33;0.80;;;7.40;99.90;;;;;;5140816;27;20190;-92
2021/12/01 17:19:47;;;;;;;1.60;1.15;;;7.40;99.90;;;;;;5137464;27;20214;-92
2021/12/01 17:22:16;;;;;;;0.95;0.80;;;7.40;99.90;;;;;;5136639;27;20198;-92
2021/12/01 17:24:43;;;;;;;1.80;0.90;;;7.30;99.90;;;;;;5137445;27;20233;-93
2021/12/01 17:27:12;;;;;;;2.25;1.10;;;7.30;99.90;;;;;;5135897;27;20237;-91
2021/12/01 17:29:40;;;;;;;1.13;0.93;;;7.30;99.90;;;;;;5138847;27;20241;-91
2021/12/01 17:32:13;;;;;;;1.48;0.90;;;7.30;99.90;;;;;;5155834;27;20204;-91
2021/12/01 17:34:42;;;;;;;1.95;1.20;;;7.30;99.90;;;;;;5155663;27;20206;-91
2021/12/01 17:37:09;;;;;;;0.80;0.80;;;7.30;99.90;;;;;;5156338;27;20209;-91
2021/12/01 17:39:38;;;;;;;1.30;1.00;;;7.30;99.90;;;;;;5155648;27;20198;-91
2021/12/01 17:42:07;;;;;;;1.00;0.80;;;7.30;99.90;;;;;;5156621;27;20568;-92
2021/12/01 17:44:35;;;;;;;1.60;1.08;;;7.30;99.90;;;;;;5156695;27;20288;-90
2021/12/01 17:47:04;;;;;;;1.10;0.90;;;7.30;99.90;;;;;;5161012;22;20231;-89
2021/12/01 17:49:31;;;;;;;1.05;0.85;;;7.20;99.90;;;;;;5094443;28;20215;-90
2021/12/01 17:52:01;;;;;;;1.23;1.00;;;7.20;99.90;;;;;;5101098;28;20226;-90
2021/12/01 17:54:46;;;;;;;1.00;0.80;;;7.20;99.90;;;;;;5102072;28;20204;-90
2021/12/01 17:57:13;;;;;;;1.00;0.90;;;7.20;99.90;;;;;;5096718;28;20292;-92
2021/12/01 18:39:21;;;;;;;3.17;1.50;;;6.90;99.90;;;;;;5101263;22;20236;-92
2021/12/01 18:42:20;;;;;;;1.55;1.15;;;6.90;99.90;;;;;;5057792;28;20220;-92
2021/12/01 19:52:51;;;;;;;1.10;1.00;;;6.40;99.90;;;;;;5098816;28;20223;-93
2021/12/01 20:40:19;;;;;;;1.90;1.63;;;6.20;99.90;;;;;;5141667;22;20223;-90
